sensor_id;sensor_type;location;lat;lon;timestamp;pressure;altitude;pressure_sealevel;temperature;humidity
8140;BME280;4111;50.972;7.072;2023-03-22T00:02:00;100695.00;;;11.69;84.13
8140;BME280;4111;50.972;7.072;2023-03-22T00:04:27;100696.31;;;11.67;84.24
8140;BME280;4111;50.972;7.072;2023-03-22T00:06:53;100691.16;;;11.65;84.46
8140;BME280;4111;50.972;7.072;2023-03-22T00:09:19;100689.16;;;11.61;84.81
8140;BME280;4111;50.972;7.072;2023-03-22T00:11:46;100686.75;;;11.64;84.52
8140;BME280;4111;50.972;7.072;2023-03-22T00:14:17;100688.75;;;11.69;84.63
8140;BME280;4111;50.972;7.072;2023-03-22T00:16:43;100689.00;;;11.67;84.50
8140;BME280;4111;50.972;7.072;2023-03-22T00:19:11;100677.78;;;11.64;84.67
8140;BME280;4111;50.972;7.072;2023-03-22T00:21:37;100673.22;;;11.69;85.18
8140;BME280;4111;50.972;7.072;2023-03-22T00:24:04;100670.56;;;11.75;85.00
8140;BME280;4111;50.972;7.072;2023-03-22T00:26:30;100668.69;;;11.75;85.00
8140;BME280;4111;50.972;7.072;2023-03-22T00:28:57;100663.50;;;11.79;85.07
8140;BME280;4111;50.972;7.072;2023-03-22T00:31:23;100665.75;;;11.82;84.94
8140;BME280;4111;50.972;7.072;2023-03-22T00:33:50;100655.41;;;11.84;85.25
8140;BME280;4111;50.972;7.072;2023-03-22T00:36:16;100656.94;;;11.75;84.99
8140;BME280;4111;50.972;7.072;2023-03-22T00:38:43;100649.31;;;11.71;85.44
8140;BME280;4111;50.972;7.072;2023-03-22T00:41:15;100654.75;;;11.71;85.59
8140;BME280;4111;50.972;7.072;2023-03-22T00:43:42;100649.31;;;11.71;85.79
8140;BME280;4111;50.972;7.072;2023-03-22T00:46:10;100642.22;;;11.70;85.78
8140;BME280;4111;50.972;7.072;2023-03-22T00:48:37;100635.72;;;11.71;85.86
8140;BME280;4111;50.972;7.072;2023-03-22T00:51:04;100639.03;;;11.79;85.94
8140;BME280;4111;50.972;7.072;2023-03-22T00:53:31;100635.16;;;11.69;85.86
8140;BME280;4111;50.972;7.072;2023-03-22T00:55:58;100636.78;;;11.70;86.13
8140;BME280;4111;50.972;7.072;2023-03-22T00:58:24;100632.22;;;11.76;86.50
8140;BME280;4111;50.972;7.072;2023-03-22T01:00:51;100628.06;;;11.68;86.03
8140;BME280;4111;50.972;7.072;2023-03-22T01:03:17;100617.41;;;11.62;86.21
8140;BME280;4111;50.972;7.072;2023-03-22T01:05:44;100616.59;;;11.61;86.55
8140;BME280;4111;50.972;7.072;2023-03-22T01:08:11;100614.44;;;11.63;86.47
8140;BME280;4111;50.972;7.072;2023-03-22T01:10:39;100610.63;;;11.64;86.51
8140;BME280;4111;50.972;7.072;2023-03-22T01:13:07;100613.59;;;11.63;86.52
8140;BME280;4111;50.972;7.072;2023-03-22T01:15:33;100613.31;;;11.59;86.54
8140;BME280;4111;50.972;7.072;2023-03-22T01:18:00;100607.34;;;11.62;86.65
8140;BME280;4111;50.972;7.072;2023-03-22T01:20:27;100604.50;;;11.52;86.74
8140;BME280;4111;50.972;7.072;2023-03-22T01:22:53;100605.28;;;11.47;86.97
8140;BME280;4111;50.972;7.072;2023-03-22T01:25:20;100600.91;;;11.46;87.32
8140;BME280;4111;50.972;7.072;2023-03-22T01:27:47;100600.56;;;11.38;87.56
8140;BME280;4111;50.972;7.072;2023-03-22T01:30:14;100601.63;;;11.37;87.98
8140;BME280;4111;50.972;7.072;2023-03-22T01:32:40;100598.41;;;11.40;88.13
8140;BME280;4111;50.972;7.072;2023-03-22T01:35:08;100596.25;;;11.42;87.95
8140;BME280;4111;50.972;7.072;2023-03-22T01:37:35;100598.41;;;11.40;88.26
8140;BME280;4111;50.972;7.072;2023-03-22T01:40:01;100596.75;;;11.39;88.67
8140;BME280;4111;50.972;7.072;2023-03-22T01:42:29;100587.53;;;11.40;88.44
8140;BME280;4111;50.972;7.072;2023-03-22T01:45:16;100592.44;;;11.43;88.17
8140;BME280;4111;50.972;7.072;2023-03-22T01:47:57;100594.03;;;11.39;88.21
8140;BME280;4111;50.972;7.072;2023-03-22T01:50:25;100579.84;;;11.31;88.40
8140;BME280;4111;50.972;7.072;2023-03-22T01:52:54;100583.94;;;11.34;88.70
8140;BME280;4111;50.972;7.072;2023-03-22T01:55:23;100578.81;;;11.38;88.47
8140;BME280;4111;50.972;7.072;2023-03-22T01:57:52;100573.84;;;11.29;88.53
8140;BME280;4111;50.972;7.072;2023-03-22T02:00:19;100566.81;;;11.34;88.81
8140;BME280;4111;50.972;7.072;2023-03-22T02:02:49;100568.09;;;11.26;88.95
8140;BME280;4111;50.972;7.072;2023-03-22T02:05:17;100565.06;;;11.22;89.30
8140;BME280;4111;50.972;7.072;2023-03-22T02:07:44;100565.56;;;11.19;89.57
8140;BME280;4111;50.972;7.072;2023-03-22T02:10:19;100563.38;;;11.16;89.85
8140;BME280;4111;50.972;7.072;2023-03-22T02:13:01;100565.56;;;11.19;89.93
8140;BME280;4111;50.972;7.072;2023-03-22T02:15:38;100556.84;;;11.17;89.71
8140;BME280;4111;50.972;7.072;2023-03-22T02:30:42;100538.81;;;11.06;90.76
8140;BME280;4111;50.972;7.072;2023-03-22T02:33:23;100542.56;;;11.05;91.03
8140;BME280;4111;50.972;7.072;2023-03-22T02:41:27;100541.06;;;11.14;90.91
8140;BME280;4111;50.972;7.072;2023-03-22T02:50:24;100534.19;;;11.06;91.06
8140;BME280;4111;50.972;7.072;2023-03-22T02:53:04;100527.63;;;11.02;91.58
8140;BME280;4111;50.972;7.072;2023-03-22T02:55:38;100519.47;;;11.02;91.66
8140;BME280;4111;50.972;7.072;2023-03-22T02:58:39;100524.13;;;11.07;91.76
8140;BME280;4111;50.972;7.072;2023-03-22T03:01:35;100513.81;;;11.09;91.71
8140;BME280;4111;50.972;7.072;2023-03-22T03:04:07;100506.19;;;11.06;91.76
8140;BME280;4111;50.972;7.072;2023-03-22T03:06:38;100505.09;;;11.07;91.78
8140;BME280;4111;50.972;7.072;2023-03-22T03:09:06;100508.34;;;11.04;91.79
8140;BME280;4111;50.972;7.072;2023-03-22T03:11:33;100507.75;;;11.02;91.53
8140;BME280;4111;50.972;7.072;2023-03-22T03:14:00;100499.50;;;10.91;92.04
8140;BME280;4111;50.972;7.072;2023-03-22T03:16:29;100506.06;;;10.96;92.42
8140;BME280;4111;50.972;7.072;2023-03-22T03:19:15;100501.47;;;10.96;92.45
8140;BME280;4111;50.972;7.072;2023-03-22T03:22:23;100496.22;;;10.89;92.60
8140;BME280;4111;50.972;7.072;2023-03-22T03:25:01;100500.34;;;10.92;92.78
8140;BME280;4111;50.972;7.072;2023-03-22T03:27:38;100496.03;;;10.96;92.47
8140;BME280;4111;50.972;7.072;2023-03-22T03:30:13;100496.53;;;10.93;92.73
8140;BME280;4111;50.972;7.072;2023-03-22T03:32:46;100495.25;;;11.01;92.66
8140;BME280;4111;50.972;7.072;2023-03-22T03:35:28;100494.69;;;10.99;92.21
8140;BME280;4111;50.972;7.072;2023-03-22T03:38:11;100494.63;;;10.94;92.54
8140;BME280;4111;50.972;7.072;2023-03-22T03:40:43;100487.19;;;10.84;92.44
8140;BME280;4111;50.972;7.072;2023-03-22T03:43:11;100485.75;;;10.76;92.98
8140;BME280;4111;50.972;7.072;2023-03-22T03:45:38;100483.63;;;10.78;93.17
8140;BME280;4111;50.972;7.072;2023-03-22T03:48:09;100478.69;;;10.75;93.29
8140;BME280;4111;50.972;7.072;2023-03-22T03:50:38;100478.59;;;10.70;93.46
8140;BME280;4111;50.972;7.072;2023-03-22T03:53:06;100482.88;;;10.61;93.79
8140;BME280;4111;50.972;7.072;2023-03-22T03:55:32;100481.97;;;10.55;94.19
8140;BME280;4111;50.972;7.072;2023-03-22T03:57:59;100484.44;;;10.57;94.57
8140;BME280;4111;50.972;7.072;2023-03-22T04:00:25;100492.59;;;10.57;94.64
8140;BME280;4111;50.972;7.072;2023-03-22T04:02:52;100492.59;;;10.57;94.44
8140;BME280;4111;50.972;7.072;2023-03-22T04:05:18;100493.41;;;10.57;94.74
8140;BME280;4111;50.972;7.072;2023-03-22T04:07:45;100502.94;;;10.60;94.30
8140;BME280;4111;50.972;7.072;2023-03-22T04:10:11;100497.50;;;10.60;94.43
8140;BME280;4111;50.972;7.072;2023-03-22T04:12:38;100508.13;;;10.61;94.30
8140;BME280;4111;50.972;7.072;2023-03-22T04:15:04;100499.16;;;10.61;94.09
8140;BME280;4111;50.972;7.072;2023-03-22T04:17:31;100499.78;;;10.46;94.55
8140;BME280;4111;50.972;7.072;2023-03-22T04:19:58;100504.25;;;10.35;94.99
8140;BME280;4111;50.972;7.072;2023-03-22T04:22:24;100506.44;;;10.38;95.31
8140;BME280;4111;50.972;7.072;2023-03-22T04:24:51;100505.88;;;10.36;95.18
8140;BME280;4111;50.972;7.072;2023-03-22T04:27:20;100501.53;;;10.35;95.35
8140;BME280;4111;50.972;7.072;2023-03-22T04:29:47;100506.13;;;10.35;95.88
8140;BME280;4111;50.972;7.072;2023-03-22T04:32:14;100502.50;;;10.29;95.87
8140;BME280;4111;50.972;7.072;2023-03-22T04:34:42;100497.91;;;10.29;95.98
8140;BME280;4111;50.972;7.072;2023-03-22T04:37:08;100504.19;;;10.30;95.95
8140;BME280;4111;50.972;7.072;2023-03-22T04:39:35;100498.25;;;10.33;96.03
8140;BME280;4111;50.972;7.072;2023-03-22T04:42:01;100494.88;;;10.26;95.85
8140;BME280;4111;50.972;7.072;2023-03-22T04:44:28;100498.38;;;10.26;96.13
8140;BME280;4111;50.972;7.072;2023-03-22T04:46:54;100487.88;;;10.30;96.29
8140;BME280;4111;50.972;7.072;2023-03-22T04:49:21;100485.00;;;10.20;96.57
8140;BME280;4111;50.972;7.072;2023-03-22T04:51:47;100484.69;;;10.16;97.21
8140;BME280;4111;50.972;7.072;2023-03-22T04:54:14;100482.31;;;10.20;97.14
8140;BME280;4111;50.972;7.072;2023-03-22T04:56:40;100478.44;;;10.16;97.45
8140;BME280;4111;50.972;7.072;2023-03-22T04:59:06;100469.16;;;10.11;97.72
8140;BME280;4111;50.972;7.072;2023-03-22T05:01:33;100470.31;;;10.16;98.01
8140;BME280;4111;50.972;7.072;2023-03-22T05:04:00;100476.75;;;10.09;98.04
8140;BME280;4111;50.972;7.072;2023-03-22T05:06:27;100468.31;;;10.11;98.67
8140;BME280;4111;50.972;7.072;2023-03-22T05:08:53;100465.38;;;10.12;99.08
8140;BME280;4111;50.972;7.072;2023-03-22T05:11:21;100471.94;;;10.17;98.98
8140;BME280;4111;50.972;7.072;2023-03-22T05:13:49;100476.34;;;10.23;98.71
8140;BME280;4111;50.972;7.072;2023-03-22T05:16:16;100472.59;;;10.24;98.80
8140;BME280;4111;50.972;7.072;2023-03-22T05:18:42;100473.16;;;10.26;98.65
8140;BME280;4111;50.972;7.072;2023-03-22T05:21:13;100465.00;;;10.26;98.93
8140;BME280;4111;50.972;7.072;2023-03-22T05:23:41;100461.81;;;10.29;98.87
8140;BME280;4111;50.972;7.072;2023-03-22T05:26:09;100461.31;;;10.32;98.88
8140;BME280;4111;50.972;7.072;2023-03-22T05:28:36;100450.72;;;10.30;99.06
8140;BME280;4111;50.972;7.072;2023-03-22T05:31:03;100450.53;;;10.37;99.00
8140;BME280;4111;50.972;7.072;2023-03-22T05:33:31;100450.03;;;10.40;98.53
8140;BME280;4111;50.972;7.072;2023-03-22T05:36:01;100457.03;;;10.36;98.46
8140;BME280;4111;50.972;7.072;2023-03-22T05:38:27;100461.72;;;10.41;98.65
8140;BME280;4111;50.972;7.072;2023-03-22T05:40:54;100458.44;;;10.39;98.93
8140;BME280;4111;50.972;7.072;2023-03-22T05:43:20;100462.84;;;10.45;98.97
8140;BME280;4111;50.972;7.072;2023-03-22T05:45:47;100466.38;;;10.45;98.74
8140;BME280;4111;50.972;7.072;2023-03-22T05:48:14;100467.44;;;10.44;98.78
8140;BME280;4111;50.972;7.072;2023-03-22T05:50:41;100468.09;;;10.51;98.93
8140;BME280;4111;50.972;7.072;2023-03-22T05:53:07;100473.63;;;10.62;98.69
8140;BME280;4111;50.972;7.072;2023-03-22T05:55:34;100475.28;;;10.63;98.23
8140;BME280;4111;50.972;7.072;2023-03-22T05:58:00;100471.56;;;10.69;97.89
8140;BME280;4111;50.972;7.072;2023-03-22T06:00:28;100474.59;;;10.73;97.76
8140;BME280;4111;50.972;7.072;2023-03-22T06:02:57;100472.22;;;10.81;97.61
8140;BME280;4111;50.972;7.072;2023-03-22T06:05:30;100471.22;;;10.87;97.15
8140;BME280;4111;50.972;7.072;2023-03-22T06:07:58;100472.34;;;10.91;97.14
8140;BME280;4111;50.972;7.072;2023-03-22T06:10:24;100479.47;;;10.98;96.74
8140;BME280;4111;50.972;7.072;2023-03-22T06:12:52;100471.72;;;11.11;96.41
8140;BME280;4111;50.972;7.072;2023-03-22T06:15:19;100467.63;;;11.09;96.65
8140;BME280;4111;50.972;7.072;2023-03-22T06:17:46;100468.56;;;11.20;96.00
8140;BME280;4111;50.972;7.072;2023-03-22T06:20:13;100473.16;;;11.19;95.45
8140;BME280;4111;50.972;7.072;2023-03-22T06:22:40;100459.84;;;11.18;95.23
8140;BME280;4111;50.972;7.072;2023-03-22T06:25:07;100461.16;;;11.15;95.08
8140;BME280;4111;50.972;7.072;2023-03-22T06:27:34;100468.56;;;11.20;94.95
8140;BME280;4111;50.972;7.072;2023-03-22T06:30:00;100473.22;;;11.24;94.93
8140;BME280;4111;50.972;7.072;2023-03-22T06:32:27;100478.72;;;11.29;94.48
8140;BME280;4111;50.972;7.072;2023-03-22T06:34:54;100476.56;;;11.31;94.55
8140;BME280;4111;50.972;7.072;2023-03-22T06:37:22;100474.41;;;11.34;94.22
8140;BME280;4111;50.972;7.072;2023-03-22T06:39:48;100478.44;;;11.31;94.10
8140;BME280;4111;50.972;7.072;2023-03-22T06:42:16;100478.25;;;11.38;94.23
8140;BME280;4111;50.972;7.072;2023-03-22T06:44:43;100473.63;;;11.38;93.88
8140;BME280;4111;50.972;7.072;2023-03-22T06:47:10;100479.84;;;11.34;93.66
8140;BME280;4111;50.972;7.072;2023-03-22T06:49:37;100482.59;;;11.39;93.57
8140;BME280;4111;50.972;7.072;2023-03-22T06:52:04;100476.59;;;11.37;93.40
8140;BME280;4111;50.972;7.072;2023-03-22T06:54:30;100479.38;;;11.47;93.41
8140;BME280;4111;50.972;7.072;2023-03-22T06:56:57;100483.34;;;11.66;93.87
8140;BME280;4111;50.972;7.072;2023-03-22T06:59:23;100477.66;;;11.68;93.46
8140;BME280;4111;50.972;7.072;2023-03-22T07:01:50;100483.53;;;11.87;93.69
8140;BME280;4111;50.972;7.072;2023-03-22T07:04:16;100476.50;;;11.91;92.90
8140;BME280;4111;50.972;7.072;2023-03-22T07:06:43;100467.09;;;11.77;91.97
8140;BME280;4111;50.972;7.072;2023-03-22T07:09:09;100468.16;;;11.70;91.85
8140;BME280;4111;50.972;7.072;2023-03-22T07:11:36;100468.16;;;11.70;91.67
8140;BME280;4111;50.972;7.072;2023-03-22T07:14:02;100471.97;;;11.69;91.68
8140;BME280;4111;50.972;7.072;2023-03-22T07:16:29;100471.47;;;11.78;91.76
8140;BME280;4111;50.972;7.072;2023-03-22T07:18:55;100473.16;;;11.84;91.53
8140;BME280;4111;50.972;7.072;2023-03-22T07:21:22;100461.66;;;11.77;91.27
8140;BME280;4111;50.972;7.072;2023-03-22T07:23:48;100458.47;;;11.85;91.52
8140;BME280;4111;50.972;7.072;2023-03-22T07:26:15;100454.63;;;11.81;91.20
8140;BME280;4111;50.972;7.072;2023-03-22T07:28:41;100456.31;;;11.87;90.83
8140;BME280;4111;50.972;7.072;2023-03-22T07:31:13;100460.47;;;11.95;90.80
8140;BME280;4111;50.972;7.072;2023-03-22T07:33:40;100458.63;;;12.05;90.32
8140;BME280;4111;50.972;7.072;2023-03-22T07:36:07;100447.34;;;12.34;90.25
8140;BME280;4111;50.972;7.072;2023-03-22T07:38:34;100442.47;;;12.36;89.60
8140;BME280;4111;50.972;7.072;2023-03-22T07:41:01;100439.16;;;12.34;89.21
8140;BME280;4111;50.972;7.072;2023-03-22T07:43:27;100439.22;;;12.49;89.16
8140;BME280;4111;50.972;7.072;2023-03-22T07:45:54;100431.66;;;12.67;88.96
8140;BME280;4111;50.972;7.072;2023-03-22T07:48:21;100435.53;;;12.86;88.24
8140;BME280;4111;50.972;7.072;2023-03-22T07:50:48;100435.00;;;13.05;87.04
8140;BME280;4111;50.972;7.072;2023-03-22T07:53:15;100433.41;;;13.19;86.63
8140;BME280;4111;50.972;7.072;2023-03-22T07:55:41;100435.03;;;13.20;85.91
8140;BME280;4111;50.972;7.072;2023-03-22T07:58:08;100439.72;;;13.40;86.08
8140;BME280;4111;50.972;7.072;2023-03-22T08:00:34;100437.78;;;13.31;84.83
8140;BME280;4111;50.972;7.072;2023-03-22T08:03:01;100436.13;;;13.24;84.47
8140;BME280;4111;50.972;7.072;2023-03-22T08:05:27;100432.88;;;13.17;84.33
8140;BME280;4111;50.972;7.072;2023-03-22T08:07:53;100428.47;;;13.11;84.35
8140;BME280;4111;50.972;7.072;2023-03-22T08:10:22;100436.66;;;13.11;84.14
8140;BME280;4111;50.972;7.072;2023-03-22T08:12:48;100425.50;;;13.18;84.47
8140;BME280;4111;50.972;7.072;2023-03-22T08:15:15;100427.41;;;13.22;84.04
8140;BME280;4111;50.972;7.072;2023-03-22T08:17:41;100424.16;;;13.31;83.89
8140;BME280;4111;50.972;7.072;2023-03-22T08:20:08;100426.63;;;13.53;83.14
8140;BME280;4111;50.972;7.072;2023-03-22T08:22:35;100432.06;;;13.58;82.51
8140;BME280;4111;50.972;7.072;2023-03-22T08:25:03;100423.06;;;13.67;81.95
8140;BME280;4111;50.972;7.072;2023-03-22T08:27:30;100422.50;;;13.76;81.26
8140;BME280;4111;50.972;7.072;2023-03-22T08:29:57;100423.50;;;14.05;80.63
8140;BME280;4111;50.972;7.072;2023-03-22T08:32:24;100427.09;;;14.01;79.03
8140;BME280;4111;50.972;7.072;2023-03-22T08:34:50;100426.84;;;13.92;77.97
8140;BME280;4111;50.972;7.072;2023-03-22T08:37:18;100425.19;;;13.96;78.01
8140;BME280;4111;50.972;7.072;2023-03-22T08:39:47;100423.25;;;14.12;78.01
8140;BME280;4111;50.972;7.072;2023-03-22T08:42:13;100425.13;;;14.22;77.49
8140;BME280;4111;50.972;7.072;2023-03-22T08:44:40;100430.00;;;14.30;76.96
8140;BME280;4111;50.972;7.072;2023-03-22T08:47:06;100431.66;;;14.21;75.07
8140;BME280;4111;50.972;7.072;2023-03-22T08:49:33;100442.03;;;14.24;74.04
8140;BME280;4111;50.972;7.072;2023-03-22T08:51:59;100436.59;;;14.14;72.97
8140;BME280;4111;50.972;7.072;2023-03-22T08:54:26;100440.34;;;14.33;72.40
8140;BME280;4111;50.972;7.072;2023-03-22T08:56:58;100444.13;;;14.58;71.94
8140;BME280;4111;50.972;7.072;2023-03-22T08:59:25;100436.50;;;14.99;70.42
8140;BME280;4111;50.972;7.072;2023-03-22T09:01:52;100446.72;;;14.78;68.88
8140;BME280;4111;50.972;7.072;2023-03-22T09:04:18;100447.19;;;14.96;68.22
8140;BME280;4111;50.972;7.072;2023-03-22T09:06:45;100439.53;;;14.98;67.79
8140;BME280;4111;50.972;7.072;2023-03-22T09:09:12;100438.91;;;15.06;67.24
8140;BME280;4111;50.972;7.072;2023-03-22T09:11:38;100439.53;;;14.98;66.98
8140;BME280;4111;50.972;7.072;2023-03-22T09:14:08;100443.06;;;14.98;66.78
8140;BME280;4111;50.972;7.072;2023-03-22T09:16:35;100439.66;;;14.77;66.28
8140;BME280;4111;50.972;7.072;2023-03-22T09:19:02;100450.66;;;14.57;66.40
8140;BME280;4111;50.972;7.072;2023-03-22T09:21:28;100429.09;;;14.50;66.63
8140;BME280;4111;50.972;7.072;2023-03-22T09:23:55;100444.09;;;14.53;66.40
8140;BME280;4111;50.972;7.072;2023-03-22T09:26:22;100448.47;;;14.59;66.26
8140;BME280;4111;50.972;7.072;2023-03-22T09:28:49;100435.31;;;14.66;66.58
8140;BME280;4111;50.972;7.072;2023-03-22T09:31:16;100439.94;;;14.76;66.37
8140;BME280;4111;50.972;7.072;2023-03-22T09:33:45;100435.38;;;15.05;65.64
8140;BME280;4111;50.972;7.072;2023-03-22T09:36:12;100415.69;;;15.38;64.95
8140;BME280;4111;50.972;7.072;2023-03-22T09:38:39;100426.88;;;15.41;64.03
8140;BME280;4111;50.972;7.072;2023-03-22T09:41:12;100425.41;;;15.54;63.59
8140;BME280;4111;50.972;7.072;2023-03-22T09:43:45;100428.50;;;15.72;63.23
8140;BME280;4111;50.972;7.072;2023-03-22T09:46:16;100428.22;;;15.78;62.24
8140;BME280;4111;50.972;7.072;2023-03-22T09:48:45;100432.81;;;15.83;61.82
8140;BME280;4111;50.972;7.072;2023-03-22T09:51:50;100420.81;;;15.79;61.58
8140;BME280;4111;50.972;7.072;2023-03-22T09:54:19;100412.66;;;15.74;60.95
8140;BME280;4111;50.972;7.072;2023-03-22T09:57:04;100417.56;;;15.72;60.58
8140;BME280;4111;50.972;7.072;2023-03-22T10:05:01;100420.19;;;15.23;61.39
8140;BME280;4111;50.972;7.072;2023-03-22T10:07:33;100422.41;;;15.21;61.69
8140;BME280;4111;50.972;7.072;2023-03-22T10:10:19;100419.03;;;15.30;61.59
8140;BME280;4111;50.972;7.072;2023-03-22T10:15:23;100413.66;;;15.19;61.86
8140;BME280;4111;50.972;7.072;2023-03-22T10:17:54;100409.09;;;15.10;62.10
8140;BME280;4111;50.972;7.072;2023-03-22T10:20:26;100407.78;;;15.02;62.12
8140;BME280;4111;50.972;7.072;2023-03-22T10:22:56;100407.75;;;15.07;62.82
8140;BME280;4111;50.972;7.072;2023-03-22T10:25:32;100408.53;;;15.13;62.49
8140;BME280;4111;50.972;7.072;2023-03-22T10:27:59;100405.00;;;15.07;62.42
8140;BME280;4111;50.972;7.072;2023-03-22T10:30:29;100403.78;;;15.23;62.53
8140;BME280;4111;50.972;7.072;2023-03-22T10:33:01;100405.09;;;15.31;62.29
8140;BME280;4111;50.972;7.072;2023-03-22T10:35:29;100418.63;;;15.12;61.75
8140;BME280;4111;50.972;7.072;2023-03-22T10:37:59;100409.38;;;15.08;61.80
8140;BME280;4111;50.972;7.072;2023-03-22T10:40:34;100397.75;;;15.26;61.71
8140;BME280;4111;50.972;7.072;2023-03-22T10:43:05;100398.09;;;15.49;61.36
8140;BME280;4111;50.972;7.072;2023-03-22T10:45:34;100397.34;;;15.67;60.89
8140;BME280;4111;50.972;7.072;2023-03-22T10:48:14;100397.75;;;15.85;60.76
8140;BME280;4111;50.972;7.072;2023-03-22T10:50:44;100401.41;;;15.75;59.91
8140;BME280;4111;50.972;7.072;2023-03-22T10:53:25;100408.94;;;15.59;59.38
8140;BME280;4111;50.972;7.072;2023-03-22T10:55:53;100413.34;;;15.55;59.55
8140;BME280;4111;50.972;7.072;2023-03-22T10:58:21;100414.22;;;15.51;59.90
8140;BME280;4111;50.972;7.072;2023-03-22T11:00:53;100417.00;;;15.45;59.86
8140;BME280;4111;50.972;7.072;2023-03-22T11:06:14;100408.69;;;15.26;60.17
8140;BME280;4111;50.972;7.072;2023-03-22T11:08:49;100416.31;;;15.30;60.11
8140;BME280;4111;50.972;7.072;2023-03-22T11:16:28;100418.44;;;15.38;60.19
8140;BME280;4111;50.972;7.072;2023-03-22T11:18:57;100423.66;;;15.34;59.97
8140;BME280;4111;50.972;7.072;2023-03-22T11:21:30;100403.50;;;15.25;60.13
8140;BME280;4111;50.972;7.072;2023-03-22T11:24:04;100411.34;;;15.37;60.26
8140;BME280;4111;50.972;7.072;2023-03-22T11:26:35;100413.63;;;15.24;59.92
8140;BME280;4111;50.972;7.072;2023-03-22T11:29:17;100409.34;;;15.13;60.20
8140;BME280;4111;50.972;7.072;2023-03-22T11:31:58;100417.03;;;15.06;60.68
8140;BME280;4111;50.972;7.072;2023-03-22T11:34:27;100413.25;;;15.02;59.80
8140;BME280;4111;50.972;7.072;2023-03-22T11:36:54;100410.75;;;15.05;59.51
8140;BME280;4111;50.972;7.072;2023-03-22T11:39:24;100419.22;;;15.09;59.61
8140;BME280;4111;50.972;7.072;2023-03-22T11:41:57;100425.03;;;14.97;59.56
8140;BME280;4111;50.972;7.072;2023-03-22T11:44:26;100411.38;;;14.97;59.99
8140;BME280;4111;50.972;7.072;2023-03-22T11:46:56;100409.41;;;15.03;59.53
8140;BME280;4111;50.972;7.072;2023-03-22T11:49:30;100410.78;;;15.00;59.02
8140;BME280;4111;50.972;7.072;2023-03-22T11:52:07;100407.16;;;15.10;59.05
8140;BME280;4111;50.972;7.072;2023-03-22T11:54:35;100422.31;;;14.97;59.38
8140;BME280;4111;50.972;7.072;2023-03-22T11:57:10;100399.66;;;14.86;59.12
8140;BME280;4111;50.972;7.072;2023-03-22T11:59:45;100410.94;;;14.80;59.62
8140;BME280;4111;50.972;7.072;2023-03-22T12:02:20;100414.53;;;14.75;59.48
8140;BME280;4111;50.972;7.072;2023-03-22T12:04:50;100397.25;;;14.80;59.27
8140;BME280;4111;50.972;7.072;2023-03-22T12:07:23;100397.53;;;14.78;59.77
8140;BME280;4111;50.972;7.072;2023-03-22T12:09:57;100393.66;;;14.84;60.07
8140;BME280;4111;50.972;7.072;2023-03-22T12:12:30;100396.44;;;14.79;59.68
8140;BME280;4111;50.972;7.072;2023-03-22T12:15:05;100401.38;;;14.77;59.72
8140;BME280;4111;50.972;7.072;2023-03-22T12:17:57;100409.53;;;14.82;60.07
8140;BME280;4111;50.972;7.072;2023-03-22T12:20:40;100392.16;;;14.68;59.45
8140;BME280;4111;50.972;7.072;2023-03-22T12:23:15;100405.03;;;14.57;59.48
8140;BME280;4111;50.972;7.072;2023-03-22T12:29:14;100403.13;;;14.58;60.09
8140;BME280;4111;50.972;7.072;2023-03-22T12:31:28;100396.28;;;14.55;60.22
8140;BME280;4111;50.972;7.072;2023-03-22T12:33:58;100396.84;;;14.47;60.15
8140;BME280;4111;50.972;7.072;2023-03-22T12:36:33;100393.59;;;14.45;60.45
8140;BME280;4111;50.972;7.072;2023-03-22T12:39:05;100389.50;;;14.47;60.91
8140;BME280;4111;50.972;7.072;2023-03-22T12:41:42;100381.31;;;14.47;60.85
8140;BME280;4111;50.972;7.072;2023-03-22T12:44:16;100384.06;;;14.42;61.06
8140;BME280;4111;50.972;7.072;2023-03-22T12:46:52;100384.56;;;14.50;61.43
8140;BME280;4111;50.972;7.072;2023-03-22T12:49:35;100380.22;;;14.43;61.81
8140;BME280;4111;50.972;7.072;2023-03-22T12:52:12;100381.31;;;14.47;61.85
8140;BME280;4111;50.972;7.072;2023-03-22T12:54:41;100396.59;;;14.48;61.94
8140;BME280;4111;50.972;7.072;2023-03-22T12:57:08;100384.59;;;14.39;61.84
8140;BME280;4111;50.972;7.072;2023-03-22T12:59:35;100383.25;;;14.37;62.16
8140;BME280;4111;50.972;7.072;2023-03-22T13:02:14;100389.56;;;14.32;62.18
8140;BME280;4111;50.972;7.072;2023-03-22T13:09:47;100381.38;;;14.27;62.53
8140;BME280;4111;50.972;7.072;2023-03-22T13:19:59;100387.97;;;14.21;63.36
8140;BME280;4111;50.972;7.072;2023-03-22T13:22:30;100379.78;;;14.26;63.50
8140;BME280;4111;50.972;7.072;2023-03-22T13:35:48;100373.47;;;14.25;65.95
8140;BME280;4111;50.972;7.072;2023-03-22T13:38:26;100379.25;;;14.19;66.72
8140;BME280;4111;50.972;7.072;2023-03-22T13:41:06;100374.59;;;14.19;67.26
8140;BME280;4111;50.972;7.072;2023-03-22T13:43:49;100374.34;;;14.16;66.80
8140;BME280;4111;50.972;7.072;2023-03-22T14:01:50;100337.88;;;14.46;66.66
8140;BME280;4111;50.972;7.072;2023-03-22T14:04:42;100332.63;;;14.55;66.17
8140;BME280;4111;50.972;7.072;2023-03-22T14:09:59;100329.66;;;14.56;65.85
8140;BME280;4111;50.972;7.072;2023-03-22T14:15:28;100333.75;;;14.54;66.00
8140;BME280;4111;50.972;7.072;2023-03-22T14:17:58;100333.75;;;14.48;65.52
8140;BME280;4111;50.972;7.072;2023-03-22T14:20:31;100337.06;;;14.45;65.52
8140;BME280;4111;50.972;7.072;2023-03-22T14:23:03;100325.53;;;14.54;65.47
8140;BME280;4111;50.972;7.072;2023-03-22T14:25:32;100336.72;;;14.57;65.46
8140;BME280;4111;50.972;7.072;2023-03-22T14:27:59;100328.53;;;14.57;65.44
8140;BME280;4111;50.972;7.072;2023-03-22T14:30:34;100325.22;;;14.55;65.30
8140;BME280;4111;50.972;7.072;2023-03-22T14:33:16;100324.91;;;14.67;65.47
8140;BME280;4111;50.972;7.072;2023-03-22T14:35:47;100310.72;;;14.65;65.51
8140;BME280;4111;50.972;7.072;2023-03-22T14:38:17;100311.59;;;14.60;65.68
8140;BME280;4111;50.972;7.072;2023-03-22T14:40:43;100317.31;;;14.64;65.99
8140;BME280;4111;50.972;7.072;2023-03-22T14:43:30;100324.44;;;14.55;65.90
8140;BME280;4111;50.972;7.072;2023-03-22T14:46:23;100323.03;;;14.62;66.19
8140;BME280;4111;50.972;7.072;2023-03-22T14:48:57;100323.03;;;14.67;66.13
8140;BME280;4111;50.972;7.072;2023-03-22T14:53:51;100326.59;;;14.63;66.14
8140;BME280;4111;50.972;7.072;2023-03-22T14:56:20;100332.56;;;14.65;65.90